»·PEaware :: SWA1831 KSNA-KLAS

SWA1831 :: KSNA-KLAS

FLIGHT INFORMATION

Flight Status: Arrived
Operator:
Southwest Airlines
More flights by this operator :: More flights under this callsign
Pilot: Cody B. (17747)
Aircraft: BOEING 737-800
(B738)
More flights by this aircraft type
Origin: KSNA John Wayne-Orange Co
United States
Destination: KLAS McCarran Intl
United States
More flights between these airports :: More routes between these airports
Route: +FINNZ2 MISEN KEPEC6
File this flight plan on PilotEdge
Remarks:
Altitude:
(Current/Filed)
29,000ft
Speed:
(Current/Filed)
450kts
Departed: 12-Jan-18 02:06 PM
Arrived: 12-Jan-18 02:58 PM
Distance/Time
Traveled:
197nm/0:52
Distance/Time
To Go:
Arrived

Flight Plot

Page will automatically refresh every two minutes.

Flight plan parsing failed; only flown route is shown


Map Options




Map Legend


Flown Route
Filed Route
Departure Airport
Arrival Airport
Navaid (VOR, NDB)
Fix

Horizontal Profiles

Position Reports

Time Latitude Longitude Heading Altitude Ground
Speed
12-Jan-18 13:41 33.675383 -117.864904 118 47ft 0kts
12-Jan-18 13:42 33.675383 -117.864904 118 47ft 0kts
12-Jan-18 13:43 33.675383 -117.864904 118 47ft 0kts
12-Jan-18 13:44 33.675383 -117.864904 118 47ft 0kts
12-Jan-18 13:45 33.675383 -117.864904 118 47ft 0kts
12-Jan-18 13:46 33.675383 -117.864904 118 47ft 0kts
12-Jan-18 13:47 33.675383 -117.864904 118 47ft 0kts
12-Jan-18 13:48 33.675383 -117.864904 118 47ft 0kts
12-Jan-18 13:49 33.675383 -117.864904 118 47ft 0kts
12-Jan-18 13:50 33.675383 -117.864904 118 47ft 0kts
12-Jan-18 13:51 33.675383 -117.864904 118 47ft 0kts
12-Jan-18 13:52 33.675383 -117.864904 118 47ft 0kts
12-Jan-18 13:53 33.675383 -117.864904 118 47ft 0kts
12-Jan-18 13:54 33.675383 -117.864904 118 47ft 0kts
12-Jan-18 13:55 33.675383 -117.864904 118 47ft 0kts
12-Jan-18 13:56 33.675383 -117.864904 118 47ft 0kts
12-Jan-18 13:57 33.675383 -117.864904 118 47ft 0kts
12-Jan-18 13:58 33.675383 -117.864904 118 47ft 0kts
12-Jan-18 13:59 33.675383 -117.864904 118 47ft 0kts
12-Jan-18 14:00 33.675383 -117.864904 118 47ft 0kts
12-Jan-18 14:01 33.675383 -117.864904 118 47ft 0kts
12-Jan-18 14:02 33.675383 -117.864904 118 47ft 0kts
12-Jan-18 14:03 33.675584 -117.865471 71 48ft 2kts
12-Jan-18 14:04 33.675433 -117.865652 27 48ft 0kts
12-Jan-18 14:05 33.675433 -117.865652 27 48ft 0kts
12-Jan-18 14:06 33.675433 -117.865652 27 48ft 0kts
12-Jan-18 14:07 33.675433 -117.865652 27 48ft 0kts
12-Jan-18 14:08 33.676479 -117.864988 28 47ft 9kts
12-Jan-18 14:09 33.679249 -117.863227 27 43ft 10kts
12-Jan-18 14:10 33.680601 -117.863031 303 43ft 0kts
12-Jan-18 14:11 33.680833 -117.863476 300 44ft 7kts
12-Jan-18 14:12 33.679588 -117.866349 206 46ft 47kts
12-Jan-18 14:13 33.635852 -117.887087 193 2032ft 227kts
12-Jan-18 14:14 33.564801 -117.907434 221 5245ft 279kts
12-Jan-18 14:15 33.507944 -117.971971 241 7968ft 284kts
12-Jan-18 14:16 33.525751 -118.051571 308 7995ft 260kts
12-Jan-18 14:17 33.565282 -118.105797 327 8862ft 266kts
12-Jan-18 14:18 33.649045 -118.093822 20 13286ft 292kts
12-Jan-18 14:19 33.724353 -118.050881 22 16682ft 311kts
12-Jan-18 14:20 33.789984 -118.012644 22 18422ft 322kts
12-Jan-18 14:21 33.871771 -117.964920 22 21503ft 339kts
12-Jan-18 14:22 33.952753 -117.903158 33 23141ft 354kts
12-Jan-18 14:23 34.029999 -117.831758 33 23180ft 353kts
12-Jan-18 14:24 34.104288 -117.756639 46 24199ft 365kts
12-Jan-18 14:25 34.170083 -117.657864 46 26060ft 403kts
12-Jan-18 14:26 34.241254 -117.551721 45 28801ft 409kts
12-Jan-18 14:27 34.315633 -117.441194 47 29189ft 451kts
12-Jan-18 14:28 34.396934 -117.319099 48 29269ft 474kts
12-Jan-18 14:29 34.479303 -117.195370 47 29282ft 472kts
12-Jan-18 14:30 34.561730 -117.072371 47 29282ft 471kts
12-Jan-18 14:31 34.645390 -116.949961 47 29273ft 471kts
12-Jan-18 14:32 34.728946 -116.827933 46 29272ft 471kts
12-Jan-18 14:33 34.812053 -116.706246 45 29270ft 466kts
12-Jan-18 14:34 34.897788 -116.601193 32 28987ft 403kts
12-Jan-18 14:35 34.982584 -116.519986 32 27036ft 393kts
12-Jan-18 14:36 35.067960 -116.437202 32 25083ft 388kts
12-Jan-18 14:37 35.145489 -116.350207 40 24305ft 385kts
12-Jan-18 14:38 35.219738 -116.255853 40 24293ft 387kts
12-Jan-18 14:39 35.293534 -116.162207 39 22548ft 374kts
12-Jan-18 14:40 35.365037 -116.071835 39 20073ft 369kts
12-Jan-18 14:41 35.435331 -115.982938 39 17892ft 352kts
12-Jan-18 14:42 35.502003 -115.898758 39 16605ft 342kts
12-Jan-18 14:43 35.567501 -115.816111 39 15371ft 334kts
12-Jan-18 14:44 35.630729 -115.736347 40 14149ft 312kts
12-Jan-18 14:45 35.688424 -115.663515 40 13318ft 290kts
12-Jan-18 14:46 35.745358 -115.591438 32 13014ft 289kts
12-Jan-18 14:47 35.820613 -115.573093 0 13017ft 278kts
12-Jan-18 14:48 35.897601 -115.567886 359 13017ft 278kts
12-Jan-18 14:49 35.971289 -115.545007 38 12992ft 294kts
12-Jan-18 14:50 36.006895 -115.452733 63 11790ft 289kts
12-Jan-18 14:51 36.030367 -115.362315 88 10853ft 282kts
12-Jan-18 14:52 36.023281 -115.266391 91 9716ft 279kts
12-Jan-18 14:53 36.016448 -115.171742 90 8717ft 274kts
12-Jan-18 14:54 36.010139 -115.078848 89 8014ft 264kts
12-Jan-18 14:55 36.005186 -114.997259 88 7412ft 216kts
12-Jan-18 14:56 35.996754 -114.927612 90 6469ft 185kts
12-Jan-18 14:57 36.018518 -114.872108 43 6484ft 174kts
12-Jan-18 14:58 36.060294 -114.863963 332 6257ft 161kts
12-Jan-18 14:59 36.072668 -114.916529 275 5533ft 175kts
12-Jan-18 15:00 36.072520 -114.976832 275 4495ft 169kts
12-Jan-18 15:01 36.073175 -115.031840 272 3454ft 148kts
12-Jan-18 15:02 36.073785 -115.079935 272 2798ft 139kts
12-Jan-18 15:03 36.073700 -115.129720 269 2068ft 141kts
12-Jan-18 15:04 36.074167 -115.144691 295 2100ft 0kts
12-Jan-18 15:05 36.074179 -115.144720 295 2100ft 1kts
12-Jan-18 15:06 36.076052 -115.146574 2 2104ft 12kts
12-Jan-18 15:07 36.078044 -115.147140 346 2102ft 9kts
12-Jan-18 15:08 36.079619 -115.146740 21 2096ft 0kts
12-Jan-18 15:09 36.079619 -115.146740 21 2096ft 0kts
12-Jan-18 15:10 36.079621 -115.146737 21 2096ft 0kts
12-Jan-18 15:11 36.079624 -115.146732 21 2096ft 0kts
12-Jan-18 15:12 36.079627 -115.146728 21 2096ft 0kts
12-Jan-18 15:13 36.079629 -115.146724 20 2096ft 0kts
12-Jan-18 15:14 36.079632 -115.146720 20 2096ft 0kts

Navigation Log

Ident Type
Flight plan parsing failed, navigation log unavailable